sensor_id;sensor_type;location;lat;lon;timestamp;temperature;humidity
19813;DHT22;10066;48.108;11.448;2022-09-29T00:02:10;8.90;99.90
19813;DHT22;10066;48.108;11.448;2022-09-29T00:04:36;8.90;99.90
19813;DHT22;10066;48.108;11.448;2022-09-29T00:07:03;8.90;99.90
19813;DHT22;10066;48.108;11.448;2022-09-29T00:09:32;8.90;99.90
19813;DHT22;10066;48.108;11.448;2022-09-29T00:11:59;8.90;99.90
19813;DHT22;10066;48.108;11.448;2022-09-29T00:14:26;9.00;99.90
19813;DHT22;10066;48.108;11.448;2022-09-29T00:16:53;9.00;99.90
19813;DHT22;10066;48.108;11.448;2022-09-29T00:19:20;9.00;99.90
19813;DHT22;10066;48.108;11.448;2022-09-29T00:21:47;9.00;99.90
19813;DHT22;10066;48.108;11.448;2022-09-29T00:24:14;9.00;99.90
19813;DHT22;10066;48.108;11.448;2022-09-29T00:26:42;9.10;99.90
19813;DHT22;10066;48.108;11.448;2022-09-29T00:29:11;9.10;99.90
19813;DHT22;10066;48.108;11.448;2022-09-29T00:31:38;9.10;99.90
19813;DHT22;10066;48.108;11.448;2022-09-29T00:34:05;9.20;99.90
19813;DHT22;10066;48.108;11.448;2022-09-29T00:36:32;9.20;99.90
19813;DHT22;10066;48.108;11.448;2022-09-29T00:38:59;9.10;99.90
19813;DHT22;10066;48.108;11.448;2022-09-29T00:41:28;9.10;99.90
19813;DHT22;10066;48.108;11.448;2022-09-29T00:43:59;9.10;99.90
19813;DHT22;10066;48.108;11.448;2022-09-29T00:46:36;9.10;99.90
19813;DHT22;10066;48.108;11.448;2022-09-29T00:49:07;9.00;99.90
19813;DHT22;10066;48.108;11.448;2022-09-29T00:51:39;9.00;99.90
19813;DHT22;10066;48.108;11.448;2022-09-29T00:54:08;9.00;99.90
19813;DHT22;10066;48.108;11.448;2022-09-29T00:56:36;9.00;99.90
19813;DHT22;10066;48.108;11.448;2022-09-29T00:59:12;9.10;99.90
19813;DHT22;10066;48.108;11.448;2022-09-29T01:01:39;9.10;99.90
19813;DHT22;10066;48.108;11.448;2022-09-29T01:04:10;9.10;99.90
19813;DHT22;10066;48.108;11.448;2022-09-29T01:06:42;9.10;99.90
19813;DHT22;10066;48.108;11.448;2022-09-29T01:09:14;9.10;99.90
19813;DHT22;10066;48.108;11.448;2022-09-29T01:11:42;9.00;99.90
19813;DHT22;10066;48.108;11.448;2022-09-29T01:14:11;9.00;99.90
19813;DHT22;10066;48.108;11.448;2022-09-29T01:16:40;8.90;99.90
19813;DHT22;10066;48.108;11.448;2022-09-29T01:19:12;8.80;99.90
19813;DHT22;10066;48.108;11.448;2022-09-29T01:21:50;8.80;99.90
19813;DHT22;10066;48.108;11.448;2022-09-29T01:24:53;8.70;99.90
19813;DHT22;10066;48.108;11.448;2022-09-29T01:27:32;8.70;99.90
19813;DHT22;10066;48.108;11.448;2022-09-29T01:30:19;8.60;99.90
19813;DHT22;10066;48.108;11.448;2022-09-29T01:33:00;8.60;99.90
19813;DHT22;10066;48.108;11.448;2022-09-29T01:35:37;8.60;99.90
19813;DHT22;10066;48.108;11.448;2022-09-29T01:38:13;8.60;99.90
19813;DHT22;10066;48.108;11.448;2022-09-29T01:40:49;8.60;99.90
19813;DHT22;10066;48.108;11.448;2022-09-29T01:43:24;8.70;99.90
19813;DHT22;10066;48.108;11.448;2022-09-29T01:46:00;8.70;99.90
19813;DHT22;10066;48.108;11.448;2022-09-29T01:48:36;8.70;99.90
19813;DHT22;10066;48.108;11.448;2022-09-29T01:51:07;8.70;99.90
19813;DHT22;10066;48.108;11.448;2022-09-29T01:53:37;8.70;99.90
19813;DHT22;10066;48.108;11.448;2022-09-29T01:56:09;8.70;99.90
19813;DHT22;10066;48.108;11.448;2022-09-29T01:58:41;8.70;99.90
19813;DHT22;10066;48.108;11.448;2022-09-29T02:03:56;8.70;99.90
19813;DHT22;10066;48.108;11.448;2022-09-29T02:06:29;8.80;99.90
19813;DHT22;10066;48.108;11.448;2022-09-29T02:09:02;8.80;99.90
19813;DHT22;10066;48.108;11.448;2022-09-29T02:11:31;8.80;99.90
19813;DHT22;10066;48.108;11.448;2022-09-29T02:14:04;8.80;99.90
19813;DHT22;10066;48.108;11.448;2022-09-29T02:16:36;8.80;99.90
19813;DHT22;10066;48.108;11.448;2022-09-29T02:19:12;8.80;99.90
19813;DHT22;10066;48.108;11.448;2022-09-29T02:21:40;8.80;99.90
19813;DHT22;10066;48.108;11.448;2022-09-29T02:24:07;8.80;99.90
19813;DHT22;10066;48.108;11.448;2022-09-29T02:26:34;8.90;99.90
19813;DHT22;10066;48.108;11.448;2022-09-29T02:29:01;8.90;99.90
19813;DHT22;10066;48.108;11.448;2022-09-29T02:31:29;8.80;99.90
19813;DHT22;10066;48.108;11.448;2022-09-29T02:33:56;8.80;99.90
19813;DHT22;10066;48.108;11.448;2022-09-29T02:36:29;8.80;99.90
19813;DHT22;10066;48.108;11.448;2022-09-29T02:39:02;8.80;99.90
19813;DHT22;10066;48.108;11.448;2022-09-29T02:41:39;8.80;99.90
19813;DHT22;10066;48.108;11.448;2022-09-29T02:47:17;8.80;99.90
19813;DHT22;10066;48.108;11.448;2022-09-29T02:50:00;8.80;99.90
19813;DHT22;10066;48.108;11.448;2022-09-29T02:52:41;8.80;99.90
19813;DHT22;10066;48.108;11.448;2022-09-29T02:55:16;8.80;99.90
19813;DHT22;10066;48.108;11.448;2022-09-29T02:57:49;8.90;99.90
19813;DHT22;10066;48.108;11.448;2022-09-29T03:00:19;8.90;99.90
19813;DHT22;10066;48.108;11.448;2022-09-29T03:02:46;8.90;99.90
19813;DHT22;10066;48.108;11.448;2022-09-29T03:05:14;8.90;99.90
19813;DHT22;10066;48.108;11.448;2022-09-29T03:07:46;8.90;99.90
19813;DHT22;10066;48.108;11.448;2022-09-29T03:10:14;8.90;99.90
19813;DHT22;10066;48.108;11.448;2022-09-29T03:12:42;8.90;99.90
19813;DHT22;10066;48.108;11.448;2022-09-29T03:15:10;8.90;99.90
19813;DHT22;10066;48.108;11.448;2022-09-29T03:17:38;9.00;99.90
19813;DHT22;10066;48.108;11.448;2022-09-29T03:20:06;8.90;99.90
19813;DHT22;10066;48.108;11.448;2022-09-29T03:22:33;9.00;99.90
19813;DHT22;10066;48.108;11.448;2022-09-29T03:25:03;9.00;99.90
19813;DHT22;10066;48.108;11.448;2022-09-29T03:27:30;9.00;99.90
19813;DHT22;10066;48.108;11.448;2022-09-29T03:29:57;9.00;99.90
19813;DHT22;10066;48.108;11.448;2022-09-29T03:32:24;9.00;99.90
19813;DHT22;10066;48.108;11.448;2022-09-29T03:34:55;9.00;99.90
19813;DHT22;10066;48.108;11.448;2022-09-29T03:37:22;9.00;99.90
19813;DHT22;10066;48.108;11.448;2022-09-29T03:39:49;9.00;99.90
19813;DHT22;10066;48.108;11.448;2022-09-29T03:42:17;9.00;99.90
19813;DHT22;10066;48.108;11.448;2022-09-29T03:44:47;9.00;99.90
19813;DHT22;10066;48.108;11.448;2022-09-29T03:47:14;9.00;99.90
19813;DHT22;10066;48.108;11.448;2022-09-29T03:49:41;9.00;99.90
19813;DHT22;10066;48.108;11.448;2022-09-29T03:52:07;9.00;99.90
19813;DHT22;10066;48.108;11.448;2022-09-29T03:54:34;9.00;99.90
19813;DHT22;10066;48.108;11.448;2022-09-29T03:57:01;9.00;99.90
19813;DHT22;10066;48.108;11.448;2022-09-29T03:59:30;9.00;99.90
19813;DHT22;10066;48.108;11.448;2022-09-29T04:01:56;9.00;99.90
19813;DHT22;10066;48.108;11.448;2022-09-29T04:04:23;9.00;99.90
19813;DHT22;10066;48.108;11.448;2022-09-29T04:06:50;9.00;99.90
19813;DHT22;10066;48.108;11.448;2022-09-29T04:09:17;9.00;99.90
19813;DHT22;10066;48.108;11.448;2022-09-29T04:11:44;9.00;99.90
19813;DHT22;10066;48.108;11.448;2022-09-29T04:14:11;9.00;99.90
19813;DHT22;10066;48.108;11.448;2022-09-29T04:16:40;9.10;99.90
19813;DHT22;10066;48.108;11.448;2022-09-29T04:19:06;9.10;99.90
19813;DHT22;10066;48.108;11.448;2022-09-29T04:21:33;9.10;99.90
19813;DHT22;10066;48.108;11.448;2022-09-29T04:24:01;9.20;99.90
19813;DHT22;10066;48.108;11.448;2022-09-29T04:26:27;9.20;99.90
19813;DHT22;10066;48.108;11.448;2022-09-29T04:29:02;9.20;99.90
19813;DHT22;10066;48.108;11.448;2022-09-29T04:31:29;9.20;99.90
19813;DHT22;10066;48.108;11.448;2022-09-29T04:33:58;9.10;99.90
19813;DHT22;10066;48.108;11.448;2022-09-29T04:36:25;9.10;99.90
19813;DHT22;10066;48.108;11.448;2022-09-29T04:38:52;9.10;99.90
19813;DHT22;10066;48.108;11.448;2022-09-29T04:41:19;9.10;99.90
19813;DHT22;10066;48.108;11.448;2022-09-29T04:43:46;9.10;99.90
19813;DHT22;10066;48.108;11.448;2022-09-29T04:46:13;9.10;99.90
19813;DHT22;10066;48.108;11.448;2022-09-29T04:48:40;9.00;99.90
19813;DHT22;10066;48.108;11.448;2022-09-29T04:51:09;9.00;99.90
19813;DHT22;10066;48.108;11.448;2022-09-29T04:53:36;9.00;99.90
19813;DHT22;10066;48.108;11.448;2022-09-29T04:56:07;8.90;99.90
19813;DHT22;10066;48.108;11.448;2022-09-29T04:58:34;8.90;99.90
19813;DHT22;10066;48.108;11.448;2022-09-29T05:01:10;8.90;99.90
19813;DHT22;10066;48.108;11.448;2022-09-29T05:03:38;8.90;99.90
19813;DHT22;10066;48.108;11.448;2022-09-29T05:06:05;8.90;99.90
19813;DHT22;10066;48.108;11.448;2022-09-29T05:08:34;8.90;99.90
19813;DHT22;10066;48.108;11.448;2022-09-29T05:11:03;8.80;99.90
19813;DHT22;10066;48.108;11.448;2022-09-29T05:13:30;8.80;99.90
19813;DHT22;10066;48.108;11.448;2022-09-29T05:15:59;8.70;99.90
19813;DHT22;10066;48.108;11.448;2022-09-29T05:18:26;8.70;99.90
19813;DHT22;10066;48.108;11.448;2022-09-29T05:20:55;8.60;99.90
19813;DHT22;10066;48.108;11.448;2022-09-29T05:23:22;8.60;99.90
19813;DHT22;10066;48.108;11.448;2022-09-29T05:25:52;8.60;99.90
19813;DHT22;10066;48.108;11.448;2022-09-29T05:28:19;8.70;99.90
19813;DHT22;10066;48.108;11.448;2022-09-29T05:30:46;8.70;99.90
19813;DHT22;10066;48.108;11.448;2022-09-29T05:33:13;8.70;99.90
19813;DHT22;10066;48.108;11.448;2022-09-29T05:35:41;8.70;99.90
19813;DHT22;10066;48.108;11.448;2022-09-29T05:38:08;8.70;99.90
19813;DHT22;10066;48.108;11.448;2022-09-29T05:40:35;8.70;99.90
19813;DHT22;10066;48.108;11.448;2022-09-29T05:43:04;8.80;99.90
19813;DHT22;10066;48.108;11.448;2022-09-29T05:45:31;8.80;99.90
19813;DHT22;10066;48.108;11.448;2022-09-29T05:47:57;8.80;99.90
19813;DHT22;10066;48.108;11.448;2022-09-29T05:50:24;8.70;99.90
19813;DHT22;10066;48.108;11.448;2022-09-29T05:52:51;8.80;99.90
19813;DHT22;10066;48.108;11.448;2022-09-29T05:55:18;8.70;99.90
19813;DHT22;10066;48.108;11.448;2022-09-29T05:57:47;8.70;99.90
19813;DHT22;10066;48.108;11.448;2022-09-29T06:00:16;8.80;99.90
19813;DHT22;10066;48.108;11.448;2022-09-29T06:02:43;8.80;99.90
19813;DHT22;10066;48.108;11.448;2022-09-29T06:05:10;8.80;99.90
19813;DHT22;10066;48.108;11.448;2022-09-29T06:07:37;8.80;99.90
19813;DHT22;10066;48.108;11.448;2022-09-29T06:10:04;8.80;99.90
19813;DHT22;10066;48.108;11.448;2022-09-29T06:12:33;8.90;99.90
19813;DHT22;10066;48.108;11.448;2022-09-29T06:15:01;8.90;99.90
19813;DHT22;10066;48.108;11.448;2022-09-29T06:17:30;8.90;99.90
19813;DHT22;10066;48.108;11.448;2022-09-29T06:19:57;9.00;99.90
19813;DHT22;10066;48.108;11.448;2022-09-29T06:22:24;9.00;99.90
19813;DHT22;10066;48.108;11.448;2022-09-29T06:24:52;9.00;99.90
19813;DHT22;10066;48.108;11.448;2022-09-29T06:27:19;9.00;99.90
19813;DHT22;10066;48.108;11.448;2022-09-29T06:29:46;9.00;99.90
19813;DHT22;10066;48.108;11.448;2022-09-29T06:32:13;9.00;99.90
19813;DHT22;10066;48.108;11.448;2022-09-29T06:34:44;9.00;99.90
19813;DHT22;10066;48.108;11.448;2022-09-29T06:37:29;9.10;99.90
19813;DHT22;10066;48.108;11.448;2022-09-29T06:40:02;9.10;99.90
19813;DHT22;10066;48.108;11.448;2022-09-29T06:42:29;9.10;99.90
19813;DHT22;10066;48.108;11.448;2022-09-29T06:44:56;9.10;99.90
19813;DHT22;10066;48.108;11.448;2022-09-29T06:47:23;9.10;99.90
19813;DHT22;10066;48.108;11.448;2022-09-29T06:49:51;9.10;99.90
19813;DHT22;10066;48.108;11.448;2022-09-29T06:52:18;9.20;99.90
19813;DHT22;10066;48.108;11.448;2022-09-29T06:54:45;9.20;99.90
19813;DHT22;10066;48.108;11.448;2022-09-29T06:57:12;9.30;99.90
19813;DHT22;10066;48.108;11.448;2022-09-29T06:59:39;9.30;99.90
19813;DHT22;10066;48.108;11.448;2022-09-29T07:02:08;9.30;99.90
19813;DHT22;10066;48.108;11.448;2022-09-29T07:04:35;9.30;99.90
19813;DHT22;10066;48.108;11.448;2022-09-29T07:07:03;9.30;99.90
19813;DHT22;10066;48.108;11.448;2022-09-29T07:09:30;9.40;99.90
19813;DHT22;10066;48.108;11.448;2022-09-29T07:11:57;9.40;99.90
19813;DHT22;10066;48.108;11.448;2022-09-29T07:14:24;9.40;99.90
19813;DHT22;10066;48.108;11.448;2022-09-29T07:16:51;9.50;99.90
19813;DHT22;10066;48.108;11.448;2022-09-29T07:19:19;9.50;99.90
19813;DHT22;10066;48.108;11.448;2022-09-29T07:21:47;9.50;99.90
19813;DHT22;10066;48.108;11.448;2022-09-29T07:24:16;9.60;99.90
19813;DHT22;10066;48.108;11.448;2022-09-29T07:26:43;9.60;99.90
19813;DHT22;10066;48.108;11.448;2022-09-29T07:29:10;9.70;99.90
19813;DHT22;10066;48.108;11.448;2022-09-29T07:31:38;9.80;99.90
19813;DHT22;10066;48.108;11.448;2022-09-29T07:34:05;9.90;99.90
19813;DHT22;10066;48.108;11.448;2022-09-29T07:36:32;9.90;99.90
19813;DHT22;10066;48.108;11.448;2022-09-29T07:38:59;10.00;99.90
19813;DHT22;10066;48.108;11.448;2022-09-29T07:41:27;10.00;99.90
19813;DHT22;10066;48.108;11.448;2022-09-29T07:43:54;10.10;99.90
19813;DHT22;10066;48.108;11.448;2022-09-29T07:46:20;10.10;99.90
19813;DHT22;10066;48.108;11.448;2022-09-29T07:48:47;10.20;99.90
19813;DHT22;10066;48.108;11.448;2022-09-29T07:51:16;10.20;99.90
19813;DHT22;10066;48.108;11.448;2022-09-29T07:53:43;10.30;99.90
19813;DHT22;10066;48.108;11.448;2022-09-29T07:56:12;10.40;99.90
19813;DHT22;10066;48.108;11.448;2022-09-29T07:58:41;10.40;99.90
19813;DHT22;10066;48.108;11.448;2022-09-29T08:01:11;10.40;99.90
19813;DHT22;10066;48.108;11.448;2022-09-29T08:03:39;10.50;99.90
19813;DHT22;10066;48.108;11.448;2022-09-29T08:06:07;10.60;99.90
19813;DHT22;10066;48.108;11.448;2022-09-29T08:08:35;10.60;99.90
19813;DHT22;10066;48.108;11.448;2022-09-29T08:11:03;10.70;99.90
19813;DHT22;10066;48.108;11.448;2022-09-29T08:13:30;10.70;99.90
19813;DHT22;10066;48.108;11.448;2022-09-29T08:16:01;10.80;99.90
19813;DHT22;10066;48.108;11.448;2022-09-29T08:18:29;10.70;99.90
19813;DHT22;10066;48.108;11.448;2022-09-29T08:20:56;10.70;99.90
19813;DHT22;10066;48.108;11.448;2022-09-29T08:23:23;10.80;99.90
19813;DHT22;10066;48.108;11.448;2022-09-29T08:25:58;10.80;99.90
19813;DHT22;10066;48.108;11.448;2022-09-29T08:30:52;10.80;99.90
19813;DHT22;10066;48.108;11.448;2022-09-29T08:33:21;10.70;99.90
19813;DHT22;10066;48.108;11.448;2022-09-29T08:35:54;10.70;99.90
19813;DHT22;10066;48.108;11.448;2022-09-29T08:38:21;10.70;99.90
19813;DHT22;10066;48.108;11.448;2022-09-29T08:40:48;10.80;99.90
19813;DHT22;10066;48.108;11.448;2022-09-29T08:43:19;10.90;99.90
19813;DHT22;10066;48.108;11.448;2022-09-29T08:45:57;10.90;99.90
19813;DHT22;10066;48.108;11.448;2022-09-29T08:48:30;10.90;99.90
19813;DHT22;10066;48.108;11.448;2022-09-29T08:51:00;10.80;99.90
19813;DHT22;10066;48.108;11.448;2022-09-29T08:53:31;10.80;99.90
19813;DHT22;10066;48.108;11.448;2022-09-29T08:56:01;10.80;99.90
19813;DHT22;10066;48.108;11.448;2022-09-29T08:58:30;10.90;99.90
19813;DHT22;10066;48.108;11.448;2022-09-29T09:01:06;11.00;99.90
19813;DHT22;10066;48.108;11.448;2022-09-29T09:04:00;11.00;99.90
19813;DHT22;10066;48.108;11.448;2022-09-29T09:06:35;11.00;99.90
19813;DHT22;10066;48.108;11.448;2022-09-29T09:09:15;11.10;99.90
19813;DHT22;10066;48.108;11.448;2022-09-29T09:11:59;11.10;99.90
19813;DHT22;10066;48.108;11.448;2022-09-29T09:17:26;11.10;99.90
19813;DHT22;10066;48.108;11.448;2022-09-29T09:20:03;11.20;99.90
19813;DHT22;10066;48.108;11.448;2022-09-29T09:22:42;11.20;99.90
19813;DHT22;10066;48.108;11.448;2022-09-29T09:25:22;11.30;99.90
19813;DHT22;10066;48.108;11.448;2022-09-29T09:28:02;11.30;99.90
19813;DHT22;10066;48.108;11.448;2022-09-29T09:30:36;11.40;99.90
19813;DHT22;10066;48.108;11.448;2022-09-29T09:33:09;11.40;99.90
19813;DHT22;10066;48.108;11.448;2022-09-29T09:35:43;11.40;99.90
19813;DHT22;10066;48.108;11.448;2022-09-29T09:38:15;11.40;99.90
19813;DHT22;10066;48.108;11.448;2022-09-29T09:40:47;11.40;99.90
19813;DHT22;10066;48.108;11.448;2022-09-29T09:43:17;11.30;99.90
19813;DHT22;10066;48.108;11.448;2022-09-29T09:45:50;11.30;99.90
19813;DHT22;10066;48.108;11.448;2022-09-29T09:48:20;11.30;99.90
19813;DHT22;10066;48.108;11.448;2022-09-29T09:50:51;11.30;99.90
19813;DHT22;10066;48.108;11.448;2022-09-29T09:53:23;11.30;99.90
19813;DHT22;10066;48.108;11.448;2022-09-29T09:56:04;11.40;99.90
19813;DHT22;10066;48.108;11.448;2022-09-29T09:58:54;11.50;99.90
19813;DHT22;10066;48.108;11.448;2022-09-29T10:01:26;11.60;99.90
19813;DHT22;10066;48.108;11.448;2022-09-29T10:03:53;11.60;99.90
19813;DHT22;10066;48.108;11.448;2022-09-29T10:06:23;11.70;99.90
19813;DHT22;10066;48.108;11.448;2022-09-29T10:08:50;11.60;99.90
19813;DHT22;10066;48.108;11.448;2022-09-29T10:11:24;11.60;99.90
19813;DHT22;10066;48.108;11.448;2022-09-29T10:13:58;11.60;99.90
19813;DHT22;10066;48.108;11.448;2022-09-29T10:16:31;11.60;99.90
19813;DHT22;10066;48.108;11.448;2022-09-29T10:18:59;11.50;99.90
19813;DHT22;10066;48.108;11.448;2022-09-29T10:21:37;11.50;99.90
19813;DHT22;10066;48.108;11.448;2022-09-29T10:24:05;11.50;99.90
19813;DHT22;10066;48.108;11.448;2022-09-29T10:26:47;11.50;99.90
19813;DHT22;10066;48.108;11.448;2022-09-29T10:29:22;11.50;99.90
19813;DHT22;10066;48.108;11.448;2022-09-29T10:32:03;11.60;99.90
19813;DHT22;10066;48.108;11.448;2022-09-29T10:34:32;11.60;99.90
19813;DHT22;10066;48.108;11.448;2022-09-29T10:37:03;11.60;99.90
19813;DHT22;10066;48.108;11.448;2022-09-29T10:39:39;11.60;99.90
19813;DHT22;10066;48.108;11.448;2022-09-29T10:42:21;11.70;99.90
19813;DHT22;10066;48.108;11.448;2022-09-29T10:44:53;11.70;99.90
19813;DHT22;10066;48.108;11.448;2022-09-29T10:47:21;11.60;99.90
19813;DHT22;10066;48.108;11.448;2022-09-29T10:50:07;11.60;99.90
19813;DHT22;10066;48.108;11.448;2022-09-29T10:52:36;11.60;99.90
19813;DHT22;10066;48.108;11.448;2022-09-29T10:55:04;11.70;99.90
19813;DHT22;10066;48.108;11.448;2022-09-29T10:57:33;11.60;99.90
19813;DHT22;10066;48.108;11.448;2022-09-29T11:00:03;11.60;99.90
19813;DHT22;10066;48.108;11.448;2022-09-29T11:02:33;11.60;99.90
19813;DHT22;10066;48.108;11.448;2022-09-29T11:05:02;11.60;99.90
19813;DHT22;10066;48.108;11.448;2022-09-29T11:07:31;11.70;99.90
19813;DHT22;10066;48.108;11.448;2022-09-29T11:10:00;11.70;99.90
19813;DHT22;10066;48.108;11.448;2022-09-29T11:12:31;11.70;99.90
19813;DHT22;10066;48.108;11.448;2022-09-29T11:15:22;11.70;99.90
19813;DHT22;10066;48.108;11.448;2022-09-29T11:17:50;11.70;99.90
19813;DHT22;10066;48.108;11.448;2022-09-29T11:20:24;11.80;99.90
19813;DHT22;10066;48.108;11.448;2022-09-29T11:23:14;11.80;99.90
19813;DHT22;10066;48.108;11.448;2022-09-29T11:26:15;11.90;99.90
19813;DHT22;10066;48.108;11.448;2022-09-29T11:29:10;11.90;99.90
19813;DHT22;10066;48.108;11.448;2022-09-29T11:32:04;12.00;99.90
19813;DHT22;10066;48.108;11.448;2022-09-29T11:37:46;12.00;99.90
19813;DHT22;10066;48.108;11.448;2022-09-29T11:40:21;12.00;99.90
19813;DHT22;10066;48.108;11.448;2022-09-29T11:43:04;12.00;99.90
19813;DHT22;10066;48.108;11.448;2022-09-29T11:45:37;12.00;99.90
19813;DHT22;10066;48.108;11.448;2022-09-29T11:51:11;11.90;99.90
19813;DHT22;10066;48.108;11.448;2022-09-29T11:53:58;11.90;99.90
19813;DHT22;10066;48.108;11.448;2022-09-29T11:56:39;11.80;99.90
19813;DHT22;10066;48.108;11.448;2022-09-29T11:59:24;11.80;99.90
19813;DHT22;10066;48.108;11.448;2022-09-29T12:02:02;11.80;99.90
19813;DHT22;10066;48.108;11.448;2022-09-29T12:04:41;11.80;99.90
19813;DHT22;10066;48.108;11.448;2022-09-29T12:07:18;11.80;99.90
19813;DHT22;10066;48.108;11.448;2022-09-29T12:10:06;11.80;99.90
19813;DHT22;10066;48.108;11.448;2022-09-29T12:12:44;11.80;99.90
19813;DHT22;10066;48.108;11.448;2022-09-29T12:15:29;11.80;99.90
19813;DHT22;10066;48.108;11.448;2022-09-29T12:18:01;11.80;99.90
19813;DHT22;10066;48.108;11.448;2022-09-29T12:20:32;11.70;99.90
19813;DHT22;10066;48.108;11.448;2022-09-29T12:23:03;11.70;99.90
19813;DHT22;10066;48.108;11.448;2022-09-29T12:25:34;11.70;99.90
19813;DHT22;10066;48.108;11.448;2022-09-29T12:28:06;11.70;99.90
19813;DHT22;10066;48.108;11.448;2022-09-29T12:30:44;11.80;99.90
19813;DHT22;10066;48.108;11.448;2022-09-29T12:33:16;11.80;99.90
19813;DHT22;10066;48.108;11.448;2022-09-29T12:35:51;11.80;99.90
19813;DHT22;10066;48.108;11.448;2022-09-29T12:38:31;11.80;99.90
19813;DHT22;10066;48.108;11.448;2022-09-29T12:41:08;11.80;99.90
19813;DHT22;10066;48.108;11.448;2022-09-29T12:43:42;11.80;99.90
19813;DHT22;10066;48.108;11.448;2022-09-29T12:46:18;11.80;99.90
19813;DHT22;10066;48.108;11.448;2022-09-29T12:48:53;11.80;99.90
19813;DHT22;10066;48.108;11.448;2022-09-29T12:51:29;11.70;99.90
19813;DHT22;10066;48.108;11.448;2022-09-29T12:54:07;11.70;99.90
19813;DHT22;10066;48.108;11.448;2022-09-29T12:56:38;11.70;99.90
19813;DHT22;10066;48.108;11.448;2022-09-29T12:59:12;11.70;99.90
19813;DHT22;10066;48.108;11.448;2022-09-29T13:01:45;11.60;99.90
19813;DHT22;10066;48.108;11.448;2022-09-29T13:13:46;11.00;99.90
19813;DHT22;10066;48.108;11.448;2022-09-29T13:16:30;10.90;99.90
19813;DHT22;10066;48.108;11.448;2022-09-29T13:19:46;11.00;99.90
19813;DHT22;10066;48.108;11.448;2022-09-29T13:22:34;11.00;99.90
19813;DHT22;10066;48.108;11.448;2022-09-29T13:25:09;11.00;99.90
19813;DHT22;10066;48.108;11.448;2022-09-29T13:27:40;10.90;99.90
19813;DHT22;10066;48.108;11.448;2022-09-29T13:30:13;10.90;99.90
19813;DHT22;10066;48.108;11.448;2022-09-29T13:32:43;10.90;99.90
19813;DHT22;10066;48.108;11.448;2022-09-29T13:35:16;10.90;99.90
19813;DHT22;10066;48.108;11.448;2022-09-29T13:37:47;10.90;99.90
19813;DHT22;10066;48.108;11.448;2022-09-29T13:40:19;10.90;99.90
19813;DHT22;10066;48.108;11.448;2022-09-29T13:42:48;11.00;99.90
19813;DHT22;10066;48.108;11.448;2022-09-29T13:45:40;10.90;99.90
19813;DHT22;10066;48.108;11.448;2022-09-29T13:48:45;10.90;99.90
19813;DHT22;10066;48.108;11.448;2022-09-29T13:51:41;10.90;99.90
19813;DHT22;10066;48.108;11.448;2022-09-29T13:54:26;10.90;99.90
19813;DHT22;10066;48.108;11.448;2022-09-29T14:00:19;11.00;99.90
19813;DHT22;10066;48.108;11.448;2022-09-29T14:03:03;11.00;99.90
19813;DHT22;10066;48.108;11.448;2022-09-29T14:05:52;11.00;99.90
19813;DHT22;10066;48.108;11.448;2022-09-29T14:08:39;11.00;99.90
19813;DHT22;10066;48.108;11.448;2022-09-29T14:11:19;10.90;99.90
19813;DHT22;10066;48.108;11.448;2022-09-29T14:13:53;10.90;99.90
19813;DHT22;10066;48.108;11.448;2022-09-29T14:16:49;10.90;99.90
19813;DHT22;10066;48.108;11.448;2022-09-29T14:19:33;10.90;99.90
19813;DHT22;10066;48.108;11.448;2022-09-29T14:22:01;10.90;99.90
19813;DHT22;10066;48.108;11.448;2022-09-29T14:28:12;10.80;99.90
19813;DHT22;10066;48.108;11.448;2022-09-29T14:30:43;10.80;99.90
19813;DHT22;10066;48.108;11.448;2022-09-29T14:33:13;10.80;99.90
19813;DHT22;10066;48.108;11.448;2022-09-29T14:35:43;10.70;99.90
19813;DHT22;10066;48.108;11.448;2022-09-29T14:38:14;10.70;99.90
19813;DHT22;10066;48.108;11.448;2022-09-29T14:40:55;10.70;99.90
19813;DHT22;10066;48.108;11.448;2022-09-29T14:43:25;10.60;99.90
19813;DHT22;10066;48.108;11.448;2022-09-29T14:49:18;10.50;99.90
19813;DHT22;10066;48.108;11.448;2022-09-29T14:52:15;10.50;99.90
19813;DHT22;10066;48.108;11.448;2022-09-29T14:54:52;10.50;99.90
19813;DHT22;10066;48.108;11.448;2022-09-29T14:57:53;10.40;99.90
19813;DHT22;10066;48.108;11.448;2022-09-29T15:00:30;10.40;99.90
19813;DHT22;10066;48.108;11.448;2022-09-29T15:03:00;10.40;99.90
19813;DHT22;10066;48.108;11.448;2022-09-29T15:05:31;10.30;99.90
19813;DHT22;10066;48.108;11.448;2022-09-29T15:07:59;10.40;99.90
19813;DHT22;10066;48.108;11.448;2022-09-29T15:10:28;10.40;99.90
19813;DHT22;10066;48.108;11.448;2022-09-29T15:13:16;10.40;99.90
19813;DHT22;10066;48.108;11.448;2022-09-29T15:15:46;10.30;99.90
19813;DHT22;10066;48.108;11.448;2022-09-29T15:18:32;10.30;99.90
19813;DHT22;10066;48.108;11.448;2022-09-29T15:21:05;10.20;99.90
19813;DHT22;10066;48.108;11.448;2022-09-29T15:23:59;10.20;99.90
19813;DHT22;10066;48.108;11.448;2022-09-29T15:26:32;10.10;99.90
19813;DHT22;10066;48.108;11.448;2022-09-29T15:29:05;10.10;99.90
19813;DHT22;10066;48.108;11.448;2022-09-29T15:31:33;10.10;99.90
19813;DHT22;10066;48.108;11.448;2022-09-29T15:34:02;10.00;99.90
19813;DHT22;10066;48.108;11.448;2022-09-29T15:36:34;10.00;99.90
19813;DHT22;10066;48.108;11.448;2022-09-29T15:39:05;10.00;99.90
19813;DHT22;10066;48.108;11.448;2022-09-29T15:41:33;10.00;99.90
19813;DHT22;10066;48.108;11.448;2022-09-29T15:44:10;10.00;99.90
19813;DHT22;10066;48.108;11.448;2022-09-29T15:46:47;9.90;99.90
19813;DHT22;10066;48.108;11.448;2022-09-29T15:49:16;9.90;99.90
19813;DHT22;10066;48.108;11.448;2022-09-29T15:51:54;9.80;99.90
19813;DHT22;10066;48.108;11.448;2022-09-29T15:54:22;9.80;99.90
19813;DHT22;10066;48.108;11.448;2022-09-29T15:56:49;9.80;99.90
19813;DHT22;10066;48.108;11.448;2022-09-29T15:59:43;9.80;99.90
19813;DHT22;10066;48.108;11.448;2022-09-29T16:02:19;9.80;99.90
19813;DHT22;10066;48.108;11.448;2022-09-29T16:04:50;9.80;99.90
19813;DHT22;10066;48.108;11.448;2022-09-29T16:07:20;9.80;99.90
19813;DHT22;10066;48.108;11.448;2022-09-29T16:09:50;9.70;99.90
19813;DHT22;10066;48.108;11.448;2022-09-29T16:12:19;9.70;99.90
19813;DHT22;10066;48.108;11.448;2022-09-29T16:14:53;9.80;99.90
19813;DHT22;10066;48.108;11.448;2022-09-29T16:17:20;9.80;99.90
19813;DHT22;10066;48.108;11.448;2022-09-29T16:19:49;9.80;99.90
19813;DHT22;10066;48.108;11.448;2022-09-29T16:22:21;9.80;99.90
19813;DHT22;10066;48.108;11.448;2022-09-29T16:25:06;9.80;99.90
19813;DHT22;10066;48.108;11.448;2022-09-29T16:27:44;9.80;99.90
19813;DHT22;10066;48.108;11.448;2022-09-29T16:30:22;9.80;99.90
19813;DHT22;10066;48.108;11.448;2022-09-29T16:32:55;9.80;99.90
19813;DHT22;10066;48.108;11.448;2022-09-29T16:38:34;9.70;99.90